sensor_id;sensor_type;location;lat;lon;timestamp;pressure;altitude;pressure_sealevel;temperature;humidity
69247;BME280;56358;56.328;43.992;2023-01-24T00:00:50;103141.03;;;-9.91;75.07
69247;BME280;56358;56.328;43.992;2023-01-24T00:02:51;103138.19;;;-9.96;75.67
69247;BME280;56358;56.328;43.992;2023-01-24T00:04:52;103140.66;;;-9.99;76.11
69247;BME280;56358;56.328;43.992;2023-01-24T00:06:52;103141.53;;;-9.98;75.91
69247;BME280;56358;56.328;43.992;2023-01-24T00:08:53;103138.06;;;-9.99;76.10
69247;BME280;56358;56.328;43.992;2023-01-24T00:11:01;103135.59;;;-9.96;76.02
69247;BME280;56358;56.328;43.992;2023-01-24T00:13:03;103146.91;;;-9.95;75.24
69247;BME280;56358;56.328;43.992;2023-01-24T00:15:04;103098.41;;;-10.31;74.40
69247;BME280;56358;56.328;43.992;2023-01-24T00:17:05;103104.16;;;-10.20;74.27
69247;BME280;56358;56.328;43.992;2023-01-24T00:19:08;103136.53;;;-10.12;74.06
69247;BME280;56358;56.328;43.992;2023-01-24T00:21:11;103121.88;;;-10.11;74.22
69247;BME280;56358;56.328;43.992;2023-01-24T00:23:15;103135.22;;;-10.21;73.94
69247;BME280;56358;56.328;43.992;2023-01-24T00:25:15;103077.44;;;-10.53;73.40
69247;BME280;56358;56.328;43.992;2023-01-24T00:27:16;103077.44;;;-10.53;73.79
69247;BME280;56358;56.328;43.992;2023-01-24T00:29:17;103117.03;;;-10.39;73.66
69247;BME280;56358;56.328;43.992;2023-01-24T00:31:18;103105.38;;;-10.48;73.95
69247;BME280;56358;56.328;43.992;2023-01-24T00:33:19;103128.06;;;-10.43;74.11
69247;BME280;56358;56.328;43.992;2023-01-24T00:35:19;103113.41;;;-10.43;73.79
69247;BME280;56358;56.328;43.992;2023-01-24T00:37:20;102979.94;;;-11.19;73.93
69247;BME280;56358;56.328;43.992;2023-01-24T00:39:21;103058.50;;;-10.69;74.45
69247;BME280;56358;56.328;43.992;2023-01-24T00:41:21;103110.97;;;-10.40;74.62
69247;BME280;56358;56.328;43.992;2023-01-24T00:43:22;102998.97;;;-11.02;74.52
69247;BME280;56358;56.328;43.992;2023-01-24T00:45:23;103111.09;;;-10.37;74.53
69247;BME280;56358;56.328;43.992;2023-01-24T00:47:24;103129.03;;;-10.41;73.49
69247;BME280;56358;56.328;43.992;2023-01-24T00:49:25;103106.28;;;-10.47;73.68
69247;BME280;56358;56.328;43.992;2023-01-24T00:51:26;103088.22;;;-10.62;74.12
69247;BME280;56358;56.328;43.992;2023-01-24T00:53:27;103114.72;;;-10.51;74.39
69247;BME280;56358;56.328;43.992;2023-01-24T00:55:27;103100.69;;;-10.55;74.67
69247;BME280;56358;56.328;43.992;2023-01-24T00:57:28;103116.34;;;-10.53;75.38
69247;BME280;56358;56.328;43.992;2023-01-24T00:59:29;103019.63;;;-11.03;76.01
69247;BME280;56358;56.328;43.992;2023-01-24T01:01:29;103094.72;;;-10.54;76.25
69247;BME280;56358;56.328;43.992;2023-01-24T01:03:30;103093.66;;;-10.57;75.05
69247;BME280;56358;56.328;43.992;2023-01-24T01:05:31;103098.50;;;-10.64;73.91
69247;BME280;56358;56.328;43.992;2023-01-24T01:07:33;103025.91;;;-11.15;73.03
69247;BME280;56358;56.328;43.992;2023-01-24T01:09:33;102971.28;;;-11.36;73.27
69247;BME280;56358;56.328;43.992;2023-01-24T01:11:34;102983.59;;;-11.48;73.39
69247;BME280;56358;56.328;43.992;2023-01-24T01:13:35;102972.75;;;-11.57;73.56
69247;BME280;56358;56.328;43.992;2023-01-24T01:15:35;103042.75;;;-11.39;74.54
69247;BME280;56358;56.328;43.992;2023-01-24T01:17:38;103095.72;;;-11.18;75.03
69247;BME280;56358;56.328;43.992;2023-01-24T01:19:38;103014.38;;;-11.69;74.49
69247;BME280;56358;56.328;43.992;2023-01-24T01:21:39;103083.97;;;-11.27;74.67
69247;BME280;56358;56.328;43.992;2023-01-24T01:23:39;103079.44;;;-11.32;75.03
69247;BME280;56358;56.328;43.992;2023-01-24T01:25:40;102976.19;;;-11.90;75.01
69247;BME280;56358;56.328;43.992;2023-01-24T01:27:41;103068.00;;;-11.35;75.03
69247;BME280;56358;56.328;43.992;2023-01-24T01:29:41;102818.75;;;-12.81;74.96
69247;BME280;56358;56.328;43.992;2023-01-24T01:31:42;103069.88;;;-11.33;75.49
69247;BME280;56358;56.328;43.992;2023-01-24T01:33:43;103070.91;;;-11.29;75.28
69247;BME280;56358;56.328;43.992;2023-01-24T01:35:46;103074.50;;;-11.27;74.16
69247;BME280;56358;56.328;43.992;2023-01-24T01:37:47;103021.06;;;-11.58;73.01
69247;BME280;56358;56.328;43.992;2023-01-24T01:39:47;103047.75;;;-11.42;72.77
69247;BME280;56358;56.328;43.992;2023-01-24T01:41:48;102974.91;;;-11.82;72.40
69247;BME280;56358;56.328;43.992;2023-01-24T01:43:49;103033.59;;;-11.49;72.78
69247;BME280;56358;56.328;43.992;2023-01-24T01:46:18;103045.16;;;-11.42;72.21
69247;BME280;56358;56.328;43.992;2023-01-24T01:48:25;103052.94;;;-11.42;72.64
69247;BME280;56358;56.328;43.992;2023-01-24T01:50:36;103045.09;;;-11.44;73.04
69247;BME280;56358;56.328;43.992;2023-01-24T01:52:41;103048.41;;;-11.47;72.60
69247;BME280;56358;56.328;43.992;2023-01-24T01:54:42;103031.09;;;-11.48;73.37
69247;BME280;56358;56.328;43.992;2023-01-24T01:56:48;103015.88;;;-11.58;72.29
69247;BME280;56358;56.328;43.992;2023-01-24T01:58:50;103015.09;;;-11.57;71.93
69247;BME280;56358;56.328;43.992;2023-01-24T02:00:51;103016.69;;;-11.59;71.88
69247;BME280;56358;56.328;43.992;2023-01-24T02:03:01;103010.28;;;-11.66;71.55
69247;BME280;56358;56.328;43.992;2023-01-24T02:05:23;102908.84;;;-12.24;71.57
69247;BME280;56358;56.328;43.992;2023-01-24T02:07:32;102994.19;;;-11.76;71.82
69247;BME280;56358;56.328;43.992;2023-01-24T02:09:39;103017.97;;;-11.67;72.15
69247;BME280;56358;56.328;43.992;2023-01-24T02:11:40;103012.88;;;-11.66;72.38
69247;BME280;56358;56.328;43.992;2023-01-24T02:13:42;103016.53;;;-11.62;71.95
69247;BME280;56358;56.328;43.992;2023-01-24T02:15:45;102992.09;;;-11.67;71.85
69247;BME280;56358;56.328;43.992;2023-01-24T02:18:07;102994.34;;;-11.73;71.69
69247;BME280;56358;56.328;43.992;2023-01-24T02:20:17;102990.88;;;-11.74;71.82
69247;BME280;56358;56.328;43.992;2023-01-24T02:22:39;102983.09;;;-11.74;72.09
69247;BME280;56358;56.328;43.992;2023-01-24T02:24:51;102953.91;;;-11.88;71.44
69247;BME280;56358;56.328;43.992;2023-01-24T02:26:57;102978.81;;;-11.73;71.19
69247;BME280;56358;56.328;43.992;2023-01-24T02:29:02;102972.91;;;-11.71;70.86
69247;BME280;56358;56.328;43.992;2023-01-24T02:31:04;102954.88;;;-11.86;70.67
69247;BME280;56358;56.328;43.992;2023-01-24T02:33:16;102961.91;;;-11.83;71.02
69247;BME280;56358;56.328;43.992;2023-01-24T02:35:29;102977.28;;;-11.70;71.04
69247;BME280;56358;56.328;43.992;2023-01-24T02:37:32;102982.38;;;-11.71;70.83
69247;BME280;56358;56.328;43.992;2023-01-24T02:39:43;102932.94;;;-11.92;71.00
69247;BME280;56358;56.328;43.992;2023-01-24T02:41:51;102959.88;;;-11.72;71.11
69247;BME280;56358;56.328;43.992;2023-01-24T02:43:56;102957.16;;;-11.75;70.58
69247;BME280;56358;56.328;43.992;2023-01-24T02:45:58;102943.78;;;-11.83;70.75
69247;BME280;56358;56.328;43.992;2023-01-24T02:47:59;102853.88;;;-12.37;70.50
69247;BME280;56358;56.328;43.992;2023-01-24T02:50:00;102959.31;;;-11.83;69.95
69247;BME280;56358;56.328;43.992;2023-01-24T02:52:00;102943.94;;;-11.80;69.80
69247;BME280;56358;56.328;43.992;2023-01-24T02:54:20;102854.69;;;-12.38;69.70
69247;BME280;56358;56.328;43.992;2023-01-24T02:56:20;102957.06;;;-11.77;70.09
69247;BME280;56358;56.328;43.992;2023-01-24T02:58:39;102947.19;;;-11.84;69.56
69247;BME280;56358;56.328;43.992;2023-01-24T03:00:42;102953.63;;;-11.92;69.60
69247;BME280;56358;56.328;43.992;2023-01-24T03:02:42;102945.59;;;-11.99;69.78
69247;BME280;56358;56.328;43.992;2023-01-24T03:04:43;102948.91;;;-12.01;69.82
69247;BME280;56358;56.328;43.992;2023-01-24T03:06:44;102864.34;;;-12.50;69.88
69247;BME280;56358;56.328;43.992;2023-01-24T03:08:44;102894.94;;;-12.26;69.92
69247;BME280;56358;56.328;43.992;2023-01-24T03:10:45;102925.50;;;-12.03;69.89
69247;BME280;56358;56.328;43.992;2023-01-24T03:12:47;102935.88;;;-12.03;70.06
69247;BME280;56358;56.328;43.992;2023-01-24T03:15:06;102817.47;;;-12.73;69.65
69247;BME280;56358;56.328;43.992;2023-01-24T03:17:25;102949.72;;;-12.02;70.11
69247;BME280;56358;56.328;43.992;2023-01-24T03:19:44;102939.34;;;-12.02;69.77
69247;BME280;56358;56.328;43.992;2023-01-24T03:22:04;102938.28;;;-12.06;69.36
69247;BME280;56358;56.328;43.992;2023-01-24T03:24:24;102934.97;;;-12.03;69.42
69247;BME280;56358;56.328;43.992;2023-01-24T03:26:43;102926.09;;;-12.08;69.32
69247;BME280;56358;56.328;43.992;2023-01-24T03:29:02;102878.84;;;-12.37;69.14
69247;BME280;56358;56.328;43.992;2023-01-24T03:31:21;102931.09;;;-12.11;69.58
69247;BME280;56358;56.328;43.992;2023-01-24T03:33:40;102937.22;;;-12.09;69.65
69247;BME280;56358;56.328;43.992;2023-01-24T03:35:59;102935.19;;;-12.15;69.24
69247;BME280;56358;56.328;43.992;2023-01-24T03:38:02;102939.88;;;-12.24;69.27
69247;BME280;56358;56.328;43.992;2023-01-24T03:40:21;102931.06;;;-12.28;69.13
69247;BME280;56358;56.328;43.992;2023-01-24T03:42:21;102825.88;;;-12.92;69.16
69247;BME280;56358;56.328;43.992;2023-01-24T03:44:22;102940.19;;;-12.35;69.42
69247;BME280;56358;56.328;43.992;2023-01-24T03:46:24;102954.78;;;-12.35;69.79
69247;BME280;56358;56.328;43.992;2023-01-24T03:48:24;102939.16;;;-12.53;70.81
69247;BME280;56358;56.328;43.992;2023-01-24T03:50:36;102928.63;;;-12.56;70.36
69247;BME280;56358;56.328;43.992;2023-01-24T03:52:55;102946.72;;;-12.41;70.61
69247;BME280;56358;56.328;43.992;2023-01-24T03:54:57;102920.78;;;-12.58;71.17
69247;BME280;56358;56.328;43.992;2023-01-24T03:56:58;102957.41;;;-12.50;70.75
69247;BME280;56358;56.328;43.992;2023-01-24T03:58:59;102954.25;;;-12.44;70.72
69247;BME280;56358;56.328;43.992;2023-01-24T04:01:00;102918.03;;;-12.61;70.53
69247;BME280;56358;56.328;43.992;2023-01-24T04:03:02;102947.06;;;-12.50;70.76
69247;BME280;56358;56.328;43.992;2023-01-24T04:05:03;102909.84;;;-12.69;70.73
69247;BME280;56358;56.328;43.992;2023-01-24T04:07:12;102924.91;;;-12.61;70.86
69247;BME280;56358;56.328;43.992;2023-01-24T04:09:13;102901.13;;;-12.71;70.79
69247;BME280;56358;56.328;43.992;2023-01-24T04:11:14;102915.44;;;-12.61;70.64
69247;BME280;56358;56.328;43.992;2023-01-24T04:13:14;102834.72;;;-13.03;70.47
69247;BME280;56358;56.328;43.992;2023-01-24T04:15:20;102880.47;;;-12.71;70.47
69247;BME280;56358;56.328;43.992;2023-01-24T04:17:21;102907.41;;;-12.51;70.43
69247;BME280;56358;56.328;43.992;2023-01-24T04:19:22;102831.34;;;-13.02;70.15
69247;BME280;56358;56.328;43.992;2023-01-24T04:21:22;102904.47;;;-12.57;70.63
69247;BME280;56358;56.328;43.992;2023-01-24T04:23:23;102910.97;;;-12.49;70.93
69247;BME280;56358;56.328;43.992;2023-01-24T04:25:24;102936.09;;;-12.46;71.01
69247;BME280;56358;56.328;43.992;2023-01-24T04:27:24;102723.13;;;-13.60;70.97
69247;BME280;56358;56.328;43.992;2023-01-24T04:29:25;102816.75;;;-13.02;71.13
69247;BME280;56358;56.328;43.992;2023-01-24T04:31:26;102920.84;;;-12.41;71.46
69247;BME280;56358;56.328;43.992;2023-01-24T04:33:27;102918.78;;;-12.47;70.19
69247;BME280;56358;56.328;43.992;2023-01-24T04:35:29;102918.00;;;-12.46;70.37
69247;BME280;56358;56.328;43.992;2023-01-24T04:37:31;102911.94;;;-12.47;70.17
69247;BME280;56358;56.328;43.992;2023-01-24T04:39:32;102900.50;;;-12.67;69.98
69247;BME280;56358;56.328;43.992;2023-01-24T04:41:32;102931.00;;;-12.44;69.95
69247;BME280;56358;56.328;43.992;2023-01-24T04:43:33;102923.97;;;-12.47;70.29
69247;BME280;56358;56.328;43.992;2023-01-24T04:45:34;102927.25;;;-12.50;70.16
69247;BME280;56358;56.328;43.992;2023-01-24T04:47:34;102835.34;;;-13.07;70.46
69247;BME280;56358;56.328;43.992;2023-01-24T04:49:35;102934.13;;;-12.50;71.29
69247;BME280;56358;56.328;43.992;2023-01-24T04:51:36;102939.75;;;-12.42;70.70
69247;BME280;56358;56.328;43.992;2023-01-24T04:53:41;102932.34;;;-12.51;70.38
69247;BME280;56358;56.328;43.992;2023-01-24T04:55:41;102837.50;;;-13.15;70.30
69247;BME280;56358;56.328;43.992;2023-01-24T04:57:42;102891.22;;;-12.78;70.35
69247;BME280;56358;56.328;43.992;2023-01-24T04:59:43;102946.81;;;-12.55;69.58
69247;BME280;56358;56.328;43.992;2023-01-24T05:01:44;102933.63;;;-12.59;69.77
69247;BME280;56358;56.328;43.992;2023-01-24T05:03:45;102854.56;;;-13.02;69.84
69247;BME280;56358;56.328;43.992;2023-01-24T05:05:49;102867.28;;;-12.90;69.78
69247;BME280;56358;56.328;43.992;2023-01-24T05:07:50;102921.41;;;-12.62;69.00
69247;BME280;56358;56.328;43.992;2023-01-24T05:09:51;102840.41;;;-13.09;69.36
69247;BME280;56358;56.328;43.992;2023-01-24T05:11:52;102942.53;;;-12.54;69.77
69247;BME280;56358;56.328;43.992;2023-01-24T05:13:52;102934.63;;;-12.57;69.19
69247;BME280;56358;56.328;43.992;2023-01-24T05:15:53;102815.97;;;-13.31;69.36
69247;BME280;56358;56.328;43.992;2023-01-24T05:17:53;102916.19;;;-12.78;69.64
69247;BME280;56358;56.328;43.992;2023-01-24T05:19:54;102936.03;;;-12.62;70.09
69247;BME280;56358;56.328;43.992;2023-01-24T05:21:55;102929.28;;;-12.75;70.33
69247;BME280;56358;56.328;43.992;2023-01-24T05:23:55;102807.28;;;-13.48;70.37
69247;BME280;56358;56.328;43.992;2023-01-24T05:26:00;102943.44;;;-12.69;70.57
69247;BME280;56358;56.328;43.992;2023-01-24T05:28:01;102925.28;;;-12.85;70.98
69247;BME280;56358;56.328;43.992;2023-01-24T05:30:02;102949.22;;;-12.73;71.14
69247;BME280;56358;56.328;43.992;2023-01-24T05:32:04;102942.28;;;-12.74;71.18
69247;BME280;56358;56.328;43.992;2023-01-24T05:34:05;102964.09;;;-12.69;70.81
69247;BME280;56358;56.328;43.992;2023-01-24T05:36:08;102941.56;;;-12.71;71.10
69247;BME280;56358;56.328;43.992;2023-01-24T05:38:09;102946.47;;;-12.76;69.48
69247;BME280;56358;56.328;43.992;2023-01-24T05:40:10;102921.00;;;-13.00;69.27
69247;BME280;56358;56.328;43.992;2023-01-24T05:42:10;102938.47;;;-12.95;69.47
69247;BME280;56358;56.328;43.992;2023-01-24T05:44:11;102949.16;;;-13.04;69.20
69247;BME280;56358;56.328;43.992;2023-01-24T05:46:16;102935.88;;;-13.10;69.32
69247;BME280;56358;56.328;43.992;2023-01-24T05:48:17;102946.38;;;-13.07;70.21
69247;BME280;56358;56.328;43.992;2023-01-24T05:50:18;102940.59;;;-13.03;69.96
69247;BME280;56358;56.328;43.992;2023-01-24T05:52:18;102921.81;;;-13.16;69.43
69247;BME280;56358;56.328;43.992;2023-01-24T05:54:21;102935.53;;;-13.02;69.63
69247;BME280;56358;56.328;43.992;2023-01-24T05:56:22;102932.41;;;-12.96;69.85
69247;BME280;56358;56.328;43.992;2023-01-24T05:58:28;102928.50;;;-12.89;69.21
69247;BME280;56358;56.328;43.992;2023-01-24T06:00:29;102894.41;;;-13.13;68.92
69247;BME280;56358;56.328;43.992;2023-01-24T06:02:29;102925.00;;;-12.75;69.38
69247;BME280;56358;56.328;43.992;2023-01-24T06:04:30;102946.38;;;-12.62;69.67
69247;BME280;56358;56.328;43.992;2023-01-24T06:06:31;102933.25;;;-12.51;69.32
69247;BME280;56358;56.328;43.992;2023-01-24T06:08:31;102822.69;;;-13.03;69.16
69247;BME280;56358;56.328;43.992;2023-01-24T06:10:32;102920.22;;;-12.37;68.72
69247;BME280;56358;56.328;43.992;2023-01-24T06:12:32;102926.63;;;-12.31;68.58
69247;BME280;56358;56.328;43.992;2023-01-24T06:14:33;102918.47;;;-12.22;68.86
69247;BME280;56358;56.328;43.992;2023-01-24T06:16:34;102921.56;;;-12.13;69.79
69247;BME280;56358;56.328;43.992;2023-01-24T06:18:34;102918.03;;;-11.98;69.12
69247;BME280;56358;56.328;43.992;2023-01-24T06:20:35;102916.16;;;-12.01;68.50
69247;BME280;56358;56.328;43.992;2023-01-24T06:22:56;102892.53;;;-12.23;67.72
69247;BME280;56358;56.328;43.992;2023-01-24T06:24:57;102836.69;;;-12.68;68.39
69247;BME280;56358;56.328;43.992;2023-01-24T06:26:58;102847.53;;;-12.58;68.80
69247;BME280;56358;56.328;43.992;2023-01-24T06:28:59;102907.34;;;-12.04;70.01
69247;BME280;56358;56.328;43.992;2023-01-24T06:35:32;102880.16;;;-11.80;68.09
69247;BME280;56358;56.328;43.992;2023-01-24T06:39:38;102894.22;;;-11.58;68.52
69247;BME280;56358;56.328;43.992;2023-01-24T06:41:39;102890.25;;;-11.51;68.17
69247;BME280;56358;56.328;43.992;2023-01-24T06:43:41;102863.88;;;-11.60;67.76
69247;BME280;56358;56.328;43.992;2023-01-24T06:45:41;102884.34;;;-11.49;67.32
69247;BME280;56358;56.328;43.992;2023-01-24T06:47:43;102898.09;;;-11.50;67.08
69247;BME280;56358;56.328;43.992;2023-01-24T06:49:44;102869.59;;;-11.50;67.32
69247;BME280;56358;56.328;43.992;2023-01-24T06:51:51;102881.09;;;-11.44;68.67
69247;BME280;56358;56.328;43.992;2023-01-24T06:53:52;102866.19;;;-11.32;68.44
69247;BME280;56358;56.328;43.992;2023-01-24T06:55:52;102864.94;;;-11.22;69.29
69247;BME280;56358;56.328;43.992;2023-01-24T06:58:03;102862.13;;;-11.09;70.04
69247;BME280;56358;56.328;43.992;2023-01-24T07:00:04;102849.28;;;-11.07;70.52
69247;BME280;56358;56.328;43.992;2023-01-24T07:02:06;102864.91;;;-10.88;70.91
69247;BME280;56358;56.328;43.992;2023-01-24T07:04:06;102861.88;;;-10.79;70.79
69247;BME280;56358;56.328;43.992;2023-01-24T07:06:07;102866.38;;;-10.75;71.00
69247;BME280;56358;56.328;43.992;2023-01-24T07:08:08;102823.06;;;-10.96;71.30
69247;BME280;56358;56.328;43.992;2023-01-24T07:10:09;102847.00;;;-10.83;71.15
69247;BME280;56358;56.328;43.992;2023-01-24T07:12:10;102863.19;;;-10.69;71.45
69247;BME280;56358;56.328;43.992;2023-01-24T07:14:10;102848.50;;;-10.69;71.16
69247;BME280;56358;56.328;43.992;2023-01-24T07:16:11;102841.78;;;-10.65;71.00
69247;BME280;56358;56.328;43.992;2023-01-24T07:18:13;102821.41;;;-10.75;71.35
69247;BME280;56358;56.328;43.992;2023-01-24T07:20:14;102783.31;;;-10.96;70.95
69247;BME280;56358;56.328;43.992;2023-01-24T07:22:15;102831.28;;;-10.68;71.01
69247;BME280;56358;56.328;43.992;2023-01-24T07:24:19;102832.88;;;-10.70;70.94
69247;BME280;56358;56.328;43.992;2023-01-24T07:26:20;102829.53;;;-10.87;71.38
69247;BME280;56358;56.328;43.992;2023-01-24T07:28:21;102832.69;;;-10.75;71.63
69247;BME280;56358;56.328;43.992;2023-01-24T07:30:22;102843.00;;;-10.76;71.72
69247;BME280;56358;56.328;43.992;2023-01-24T07:32:22;102830.59;;;-10.82;71.88
69247;BME280;56358;56.328;43.992;2023-01-24T07:34:23;102784.72;;;-11.03;71.51
69247;BME280;56358;56.328;43.992;2023-01-24T07:36:24;102825.41;;;-10.82;71.83
69247;BME280;56358;56.328;43.992;2023-01-24T07:38:26;102830.16;;;-10.73;71.82
69247;BME280;56358;56.328;43.992;2023-01-24T07:40:26;102729.16;;;-11.27;72.04
69247;BME280;56358;56.328;43.992;2023-01-24T07:42:27;102743.81;;;-11.10;72.04
69247;BME280;56358;56.328;43.992;2023-01-24T07:44:27;102806.91;;;-10.72;71.96
69247;BME280;56358;56.328;43.992;2023-01-24T07:46:28;102835.75;;;-10.46;71.69
69247;BME280;56358;56.328;43.992;2023-01-24T07:48:29;102711.25;;;-11.05;71.25
69247;BME280;56358;56.328;43.992;2023-01-24T07:50:30;102821.75;;;-10.30;71.36
69247;BME280;56358;56.328;43.992;2023-01-24T07:52:33;102810.56;;;-10.29;71.72
69247;BME280;56358;56.328;43.992;2023-01-24T07:54:33;102833.44;;;-10.20;71.27
69247;BME280;56358;56.328;43.992;2023-01-24T07:56:34;102814.59;;;-10.16;71.30
69247;BME280;56358;56.328;43.992;2023-01-24T07:58:35;102765.91;;;-10.43;70.75
69247;BME280;56358;56.328;43.992;2023-01-24T08:00:35;102801.41;;;-10.21;70.84
69247;BME280;56358;56.328;43.992;2023-01-24T08:02:36;102806.59;;;-10.21;70.82
69247;BME280;56358;56.328;43.992;2023-01-24T08:04:37;102752.56;;;-10.51;70.71
69247;BME280;56358;56.328;43.992;2023-01-24T08:06:39;102825.25;;;-10.10;70.61
69247;BME280;56358;56.328;43.992;2023-01-24T08:09:03;102800.25;;;-10.08;70.42
69247;BME280;56358;56.328;43.992;2023-01-24T08:11:03;102797.03;;;-10.02;70.84
69247;BME280;56358;56.328;43.992;2023-01-24T08:13:04;102691.91;;;-10.54;70.63
69247;BME280;56358;56.328;43.992;2023-01-24T08:15:05;102660.66;;;-10.57;70.42
69247;BME280;56358;56.328;43.992;2023-01-24T08:17:06;102687.91;;;-10.27;70.14
69247;BME280;56358;56.328;43.992;2023-01-24T08:19:07;102793.09;;;-9.53;69.71
69247;BME280;56358;56.328;43.992;2023-01-24T08:21:08;102763.69;;;-9.52;69.72
69247;BME280;56358;56.328;43.992;2023-01-24T08:23:09;102677.13;;;-9.95;69.25
69247;BME280;56358;56.328;43.992;2023-01-24T08:25:09;102785.22;;;-9.34;69.28
69247;BME280;56358;56.328;43.992;2023-01-24T08:27:10;102794.38;;;-9.22;68.80
69247;BME280;56358;56.328;43.992;2023-01-24T08:29:11;102758.75;;;-9.46;68.32
69247;BME280;56358;56.328;43.992;2023-01-24T08:31:12;102791.72;;;-9.24;68.52
69247;BME280;56358;56.328;43.992;2023-01-24T08:33:13;102792.47;;;-9.27;68.66
69247;BME280;56358;56.328;43.992;2023-01-24T08:35:19;102790.31;;;-9.37;68.49
69247;BME280;56358;56.328;43.992;2023-01-24T08:37:19;102759.63;;;-9.46;68.86
69247;BME280;56358;56.328;43.992;2023-01-24T08:39:20;102795.56;;;-9.35;68.95
69247;BME280;56358;56.328;43.992;2023-01-24T08:41:21;102780.78;;;-9.36;69.12
69247;BME280;56358;56.328;43.992;2023-01-24T08:43:21;102597.44;;;-10.40;69.13
69247;BME280;56358;56.328;43.992;2023-01-24T08:45:22;102767.81;;;-9.36;68.99
69247;BME280;56358;56.328;43.992;2023-01-24T08:47:22;102743.94;;;-9.49;68.74
69247;BME280;56358;56.328;43.992;2023-01-24T08:49:23;102668.88;;;-9.85;68.56
69247;BME280;56358;56.328;43.992;2023-01-24T08:51:24;102783.22;;;-9.20;68.69
69247;BME280;56358;56.328;43.992;2023-01-24T08:53:25;102771.75;;;-9.25;68.76
69247;BME280;56358;56.328;43.992;2023-01-24T08:55:25;102754.03;;;-9.13;68.71
69247;BME280;56358;56.328;43.992;2023-01-24T08:57:26;102747.41;;;-9.04;68.55
69247;BME280;56358;56.328;43.992;2023-01-24T08:59:27;102756.50;;;-8.95;68.71
69247;BME280;56358;56.328;43.992;2023-01-24T09:01:27;102754.31;;;-8.84;68.49
69247;BME280;56358;56.328;43.992;2023-01-24T09:03:28;102693.34;;;-9.15;68.28
69247;BME280;56358;56.328;43.992;2023-01-24T09:05:29;102744.25;;;-8.74;68.28
69247;BME280;56358;56.328;43.992;2023-01-24T09:07:30;102723.81;;;-8.88;68.45
69247;BME280;56358;56.328;43.992;2023-01-24T09:09:31;102744.66;;;-8.64;68.02
69247;BME280;56358;56.328;43.992;2023-01-24T09:11:32;102739.38;;;-8.65;67.78
69247;BME280;56358;56.328;43.992;2023-01-24T09:13:32;102734.25;;;-8.64;67.47
69247;BME280;56358;56.328;43.992;2023-01-24T09:15:33;102732.47;;;-8.65;67.53
69247;BME280;56358;56.328;43.992;2023-01-24T09:17:33;102699.88;;;-8.79;67.78
69247;BME280;56358;56.328;43.992;2023-01-24T09:19:34;102627.25;;;-9.21;67.73
69247;BME280;56358;56.328;43.992;2023-01-24T09:21:35;102729.69;;;-8.69;67.54
69247;BME280;56358;56.328;43.992;2023-01-24T09:23:37;102715.97;;;-8.65;67.75
69247;BME280;56358;56.328;43.992;2023-01-24T09:25:38;102715.97;;;-8.65;67.99
69247;BME280;56358;56.328;43.992;2023-01-24T09:27:39;102714.69;;;-8.77;68.31
69247;BME280;56358;56.328;43.992;2023-01-24T09:29:42;102707.00;;;-8.73;68.08
69247;BME280;56358;56.328;43.992;2023-01-24T09:31:42;102725.13;;;-8.52;67.85
69247;BME280;56358;56.328;43.992;2023-01-24T09:33:43;102720.75;;;-8.53;67.43
69247;BME280;56358;56.328;43.992;2023-01-24T09:35:51;102736.34;;;-8.53;67.48
69247;BME280;56358;56.328;43.992;2023-01-24T09:37:53;102718.16;;;-8.53;67.88
69247;BME280;56358;56.328;43.992;2023-01-24T09:39:53;102676.66;;;-8.74;67.88
69247;BME280;56358;56.328;43.992;2023-01-24T09:42:05;102710.63;;;-8.46;67.53
69247;BME280;56358;56.328;43.992;2023-01-24T09:46:45;102733.28;;;-8.42;66.41
69247;BME280;56358;56.328;43.992;2023-01-24T09:48:54;102629.13;;;-8.95;66.99
69247;BME280;56358;56.328;43.992;2023-01-24T09:51:03;102714.97;;;-8.45;67.05
69247;BME280;56358;56.328;43.992;2023-01-24T09:53:23;102660.84;;;-8.79;67.38
69247;BME280;56358;56.328;43.992;2023-01-24T09:55:39;102713.25;;;-8.44;66.99
69247;BME280;56358;56.328;43.992;2023-01-24T09:57:48;102629.38;;;-8.87;66.76
69247;BME280;56358;56.328;43.992;2023-01-24T09:59:52;102670.00;;;-8.66;67.17
69247;BME280;56358;56.328;43.992;2023-01-24T10:01:56;102698.50;;;-8.45;67.40
69247;BME280;56358;56.328;43.992;2023-01-24T10:03:56;102675.81;;;-8.49;67.39
69247;BME280;56358;56.328;43.992;2023-01-24T10:06:16;102681.63;;;-8.31;67.22
69247;BME280;56358;56.328;43.992;2023-01-24T10:08:48;102661.34;;;-8.41;67.21
69247;BME280;56358;56.328;43.992;2023-01-24T10:10:57;102584.69;;;-8.77;67.42
69247;BME280;56358;56.328;43.992;2023-01-24T10:13:56;102675.06;;;-8.21;66.86
69247;BME280;56358;56.328;43.992;2023-01-24T10:15:59;102675.06;;;-8.21;67.06
69247;BME280;56358;56.328;43.992;2023-01-24T10:17:58;102700.03;;;-8.26;67.61
69247;BME280;56358;56.328;43.992;2023-01-24T10:24:41;102702.19;;;-8.14;67.55
69247;BME280;56358;56.328;43.992;2023-01-24T10:26:48;102683.84;;;-8.17;67.49
69247;BME280;56358;56.328;43.992;2023-01-24T10:28:54;102646.50;;;-8.44;67.93
69247;BME280;56358;56.328;43.992;2023-01-24T10:31:00;102674.94;;;-8.24;68.75
69247;BME280;56358;56.328;43.992;2023-01-24T10:33:05;102669.16;;;-8.15;68.41
69247;BME280;56358;56.328;43.992;2023-01-24T10:35:14;102645.97;;;-8.33;67.83
69247;BME280;56358;56.328;43.992;2023-01-24T10:37:21;102655.38;;;-8.13;68.12
69247;BME280;56358;56.328;43.992;2023-01-24T10:39:23;102626.53;;;-8.45;68.06
69247;BME280;56358;56.328;43.992;2023-01-24T10:41:26;102643.75;;;-8.22;68.10
69247;BME280;56358;56.328;43.992;2023-01-24T10:43:31;102630.69;;;-8.24;68.94
69247;BME280;56358;56.328;43.992;2023-01-24T10:47:49;102634.44;;;-8.16;70.07